createdAt,value
2023-01-02T00:00:35.387Z,13.97
2023-01-02T00:01:36.966Z,13.78
2023-01-02T00:02:39.619Z,13.61
2023-01-02T00:03:41.359Z,13.55
2023-01-02T00:04:43.938Z,13.40
2023-01-02T00:05:49.859Z,13.50
2023-01-02T00:06:52.382Z,13.58
2023-01-02T00:07:53.924Z,13.34
2023-01-02T00:08:56.418Z,13.47
2023-01-02T00:09:57.979Z,13.62
2023-01-02T00:11:00.901Z,13.30
2023-01-02T00:12:02.494Z,13.36
2023-01-02T00:13:05.031Z,13.27
2023-01-02T00:14:06.598Z,12.66
2023-01-02T00:15:09.770Z,12.74
2023-01-02T00:16:11.318Z,12.86
2023-01-02T00:17:13.732Z,12.92
2023-01-02T00:18:15.517Z,12.89
2023-01-02T00:19:17.994Z,13.03
2023-01-02T00:20:19.528Z,13.24
2023-01-02T00:21:23.264Z,13.34
2023-01-02T00:22:24.815Z,13.10
2023-01-02T00:23:27.287Z,13.07
2023-01-02T00:24:28.787Z,13.08
2023-01-02T00:25:34.624Z,13.09
2023-01-02T00:26:36.242Z,13.15
2023-01-02T00:27:38.849Z,13.17
2023-01-02T00:28:41.479Z,13.28
2023-01-02T00:29:42.967Z,12.97
2023-01-02T00:30:45.450Z,12.97
2023-01-02T00:31:47.232Z,12.90
2023-01-02T00:32:50.015Z,13.10
2023-01-02T00:33:51.537Z,13.05
2023-01-02T00:34:53.977Z,13.06
2023-01-02T00:35:56.471Z,13.10
2023-01-02T00:36:59.378Z,12.68
2023-01-02T00:38:01.894Z,12.56
2023-01-02T00:39:03.541Z,12.68
2023-01-02T00:40:07.408Z,12.80
2023-01-02T00:41:09.244Z,12.89
2023-01-02T00:42:11.712Z,12.79
2023-01-02T00:43:13.321Z,12.89
2023-01-02T00:44:15.825Z,13.02
2023-01-02T00:45:18.517Z,13.27
2023-01-02T00:46:20.108Z,13.45
2023-01-02T00:47:22.652Z,13.66
2023-01-02T00:48:24.194Z,13.76
2023-01-02T00:49:26.749Z,13.92
2023-01-02T00:50:28.367Z,13.93
2023-01-02T00:51:30.811Z,14.01
2023-01-02T00:52:33.790Z,14.10
2023-01-02T00:53:36.347Z,14.15
2023-01-02T00:54:38.005Z,14.28
2023-01-02T00:55:40.652Z,14.37
2023-01-02T00:56:42.181Z,14.47
2023-01-02T00:57:44.720Z,14.48
2023-01-02T00:58:46.467Z,14.52
2023-01-02T00:59:48.916Z,14.56
2023-01-02T01:00:50.994Z,14.63
2023-01-02T01:01:53.779Z,14.58
2023-01-02T01:02:56.410Z,14.68
2023-01-02T01:03:59.280Z,14.67
2023-01-02T01:05:00.907Z,14.76
2023-01-02T01:06:07.733Z,14.78
2023-01-02T01:07:09.205Z,14.81
2023-01-02T01:08:12.956Z,14.79
2023-01-02T01:09:14.552Z,14.89
2023-01-02T01:10:17.272Z,14.88
2023-01-02T01:11:19.236Z,14.86
2023-01-02T01:12:21.740Z,14.84
2023-01-02T01:13:23.262Z,14.91
2023-01-02T01:14:25.748Z,14.95
2023-01-02T01:15:27.243Z,14.95
2023-01-02T01:16:29.743Z,14.97
2023-01-02T01:17:31.869Z,15.03
2023-01-02T01:18:34.389Z,15.07
2023-01-02T01:19:36.100Z,15.10
2023-01-02T01:20:39.042Z,15.18
2023-01-02T01:21:40.641Z,15.22
2023-01-02T01:22:43.131Z,15.07
2023-01-02T01:23:50.568Z,15.15
2023-01-02T01:24:53.283Z,15.03
2023-01-02T01:25:54.775Z,15.08
2023-01-02T01:26:57.221Z,15.13
2023-01-02T01:27:58.811Z,15.15
2023-01-02T01:29:01.956Z,15.24
2023-01-02T01:30:03.763Z,15.22
2023-01-02T01:31:07.708Z,15.41
2023-01-02T01:32:09.239Z,15.44
2023-01-02T01:33:11.791Z,15.32
2023-01-02T01:34:13.974Z,15.32
2023-01-02T01:35:16.538Z,15.28
2023-01-02T01:36:19.915Z,15.24
2023-01-02T01:37:22.357Z,15.19
2023-01-02T01:38:23.825Z,15.21
2023-01-02T01:39:27.790Z,15.28
2023-01-02T01:40:32.265Z,15.33
2023-01-02T01:41:34.842Z,15.22
2023-01-02T01:42:36.424Z,15.21
2023-01-02T01:43:41.451Z,15.29
2023-01-02T01:44:49.872Z,15.35
2023-01-02T01:45:51.705Z,15.36
2023-01-02T01:46:54.432Z,15.37
2023-01-02T01:48:00.437Z,15.29
2023-01-02T01:49:06.610Z,15.29
2023-01-02T01:50:10.279Z,15.19
2023-01-02T01:51:12.732Z,15.22
2023-01-02T01:52:17.341Z,15.22
2023-01-02T01:53:21.911Z,15.20
2023-01-02T01:54:28.314Z,15.26
2023-01-02T01:55:34.157Z,15.32
2023-01-02T01:56:40.026Z,15.35
2023-01-02T01:57:45.792Z,15.36
2023-01-02T01:58:47.412Z,15.42
2023-01-02T01:59:50.686Z,15.40
2023-01-02T02:00:53.378Z,15.47
2023-01-02T02:01:55.174Z,15.42
2023-01-02T02:03:00.806Z,15.46
2023-01-02T02:04:02.937Z,15.38
2023-01-02T02:05:07.850Z,15.29
2023-01-02T02:06:10.545Z,15.31
2023-01-02T02:07:13.833Z,15.42
2023-01-02T02:08:18.178Z,15.49
2023-01-02T02:09:26.835Z,15.55
2023-01-02T02:10:29.713Z,15.54
2023-01-02T02:11:33.068Z,15.46
2023-01-02T02:12:35.216Z,15.52
2023-01-02T02:13:38.850Z,15.51
2023-01-02T02:14:40.347Z,15.60
2023-01-02T02:15:49.509Z,15.54
2023-01-02T02:17:00.401Z,15.59
2023-01-02T02:18:15.310Z,15.37
2023-01-02T02:19:49.227Z,15.40
2023-01-02T02:21:01.768Z,15.52
2023-01-02T02:22:19.863Z,15.50
2023-01-02T02:23:57.022Z,15.41
2023-01-02T02:25:20.238Z,15.42
2023-01-02T02:26:49.773Z,15.42
2023-01-02T02:28:17.299Z,15.45
2023-01-02T02:29:44.298Z,15.46
2023-01-02T02:30:54.428Z,15.49
2023-01-02T02:32:01.156Z,15.49
2023-01-02T02:33:28.584Z,15.45
2023-01-02T02:34:40.724Z,15.44
2023-01-02T02:35:54.327Z,15.44
2023-01-02T02:37:01.170Z,15.43
2023-01-02T02:38:09.628Z,15.45
2023-01-02T02:39:20.588Z,15.50
2023-01-02T02:40:36.760Z,15.45
2023-01-02T02:41:47.155Z,15.52
2023-01-02T02:43:01.692Z,15.52
2023-01-02T02:44:20.359Z,15.62
2023-01-02T02:45:31.145Z,15.64
2023-01-02T02:46:38.360Z,15.64
2023-01-02T02:47:46.462Z,15.66
2023-01-02T02:48:56.284Z,15.69
2023-01-02T02:50:03.869Z,15.63
2023-01-02T02:51:09.976Z,15.66
2023-01-02T02:52:22.364Z,15.71
2023-01-02T02:53:26.566Z,15.54
2023-01-02T02:54:35.404Z,15.60
2023-01-02T02:55:43.977Z,15.66
2023-01-02T02:56:47.909Z,15.76
2023-01-02T02:57:51.521Z,15.56
2023-01-02T02:58:55.299Z,15.56
2023-01-02T02:59:56.959Z,15.58
2023-01-02T03:01:04.076Z,15.59
2023-01-02T03:02:07.212Z,15.52
2023-01-02T03:03:17.947Z,15.60
2023-01-02T03:04:21.355Z,15.67
2023-01-02T03:05:32.371Z,15.66
2023-01-02T03:06:46.645Z,15.65
2023-01-02T03:07:55.503Z,15.70
2023-01-02T03:09:09.646Z,15.64
2023-01-02T03:10:23.244Z,15.77
2023-01-02T03:11:35.037Z,15.79
2023-01-02T03:12:48.726Z,15.70
2023-01-02T03:14:00.169Z,15.58
2023-01-02T03:15:10.914Z,15.65
2023-01-02T03:16:16.422Z,15.65
2023-01-02T03:17:27.493Z,15.71
2023-01-02T03:18:35.780Z,15.59
2023-01-02T03:19:41.867Z,15.71
2023-01-02T03:20:49.224Z,15.70
2023-01-02T03:22:00.619Z,15.71
2023-01-02T03:23:08.035Z,15.73
2023-01-02T03:24:14.540Z,15.72
2023-01-02T03:25:17.958Z,15.75
2023-01-02T03:26:26.544Z,15.70
2023-01-02T03:27:33.188Z,15.57
2023-01-02T03:28:39.172Z,15.63
2023-01-02T03:29:45.013Z,15.80
2023-01-02T03:30:49.426Z,15.81
2023-01-02T03:31:55.376Z,15.77
2023-01-02T03:33:03.695Z,15.77
2023-01-02T03:34:11.982Z,15.85
2023-01-02T03:35:19.371Z,15.76
2023-01-02T03:36:26.438Z,15.85
2023-01-02T03:37:33.871Z,15.90
2023-01-02T03:38:41.560Z,15.96
2023-01-02T03:39:47.790Z,15.79
2023-01-02T03:40:56.561Z,15.74
2023-01-02T03:42:02.209Z,15.74
2023-01-02T03:43:08.790Z,15.69
2023-01-02T03:44:12.752Z,15.75
2023-01-02T03:45:20.025Z,15.72
2023-01-02T03:46:30.498Z,15.63
2023-01-02T03:47:37.765Z,15.76
2023-01-02T03:48:46.968Z,15.78
2023-01-02T03:49:52.361Z,15.77
2023-01-02T03:50:57.146Z,15.88
2023-01-02T03:51:58.965Z,15.77
2023-01-02T03:53:02.143Z,15.71
2023-01-02T03:54:05.367Z,15.60
2023-01-02T03:55:08.898Z,15.70
2023-01-02T03:56:17.982Z,15.80
2023-01-02T03:57:28.325Z,15.84
2023-01-02T03:58:39.776Z,15.63
2023-01-02T03:59:49.268Z,15.68
2023-01-02T04:00:54.684Z,15.62
2023-01-02T04:02:02.621Z,15.67
2023-01-02T04:03:09.611Z,15.71
2023-01-02T04:04:19.916Z,15.67
2023-01-02T04:05:27.949Z,15.82
2023-01-02T04:06:35.305Z,15.83
2023-01-02T04:07:44.262Z,15.79
2023-01-02T04:08:51.497Z,15.75
2023-01-02T04:09:54.447Z,15.73
2023-01-02T04:10:59.823Z,15.53
2023-01-02T04:12:07.091Z,15.49
2023-01-02T04:13:14.099Z,15.43
2023-01-02T04:14:20.165Z,15.48
2023-01-02T04:15:25.615Z,15.51
2023-01-02T04:17:53.662Z,15.63
2023-01-02T04:19:00.949Z,15.51
2023-01-02T04:20:09.586Z,15.48
2023-01-02T04:21:15.647Z,15.56
2023-01-02T04:22:22.386Z,15.62
2023-01-02T04:23:28.796Z,15.60
2023-01-02T04:24:34.724Z,15.67
2023-01-02T04:25:47.108Z,15.80
2023-01-02T04:26:53.511Z,15.75
2023-01-02T04:27:59.302Z,15.72
2023-01-02T04:29:02.385Z,15.59
2023-01-02T04:30:04.822Z,15.64
2023-01-02T04:31:11.015Z,15.74
2023-01-02T04:32:19.203Z,15.71
2023-01-02T04:33:25.213Z,15.61
2023-01-02T04:34:29.866Z,15.64
2023-01-02T04:35:35.826Z,15.72
2023-01-02T04:36:38.902Z,15.63
2023-01-02T04:37:43.408Z,15.73
2023-01-02T04:38:46.016Z,15.50
2023-01-02T04:39:48.925Z,15.66
2023-01-02T04:40:50.516Z,15.63
2023-01-02T04:41:52.959Z,15.60
2023-01-02T04:42:54.923Z,15.53
2023-01-02T04:43:58.018Z,15.48
2023-01-02T04:44:59.611Z,15.46
2023-01-02T04:46:02.195Z,15.29
2023-01-02T04:47:06.041Z,15.37
2023-01-02T04:48:08.480Z,15.49
2023-01-02T04:49:10.427Z,15.59
2023-01-02T04:50:13.338Z,15.69
2023-01-02T04:51:16.606Z,15.52
2023-01-02T04:52:19.160Z,15.44
2023-01-02T04:53:20.928Z,15.54
2023-01-02T04:54:23.407Z,15.60
2023-01-02T04:55:24.891Z,15.57
2023-01-02T04:56:27.360Z,15.72
2023-01-02T04:57:28.881Z,15.46
2023-01-02T04:58:31.564Z,15.63
2023-01-02T04:59:33.113Z,15.49
2023-01-02T05:00:35.645Z,15.37
2023-01-02T05:01:37.309Z,15.23
2023-01-02T05:02:42.046Z,15.36
2023-01-02T05:03:45.792Z,15.36
2023-01-02T05:04:48.302Z,15.58
2023-01-02T05:05:49.823Z,15.52
2023-01-02T05:06:53.784Z,15.54
2023-01-02T05:07:55.442Z,15.59
2023-01-02T05:08:59.561Z,15.69
2023-01-02T05:10:01.255Z,15.41
2023-01-02T05:11:06.573Z,15.42
2023-01-02T05:12:08.167Z,15.49
2023-01-02T05:13:10.725Z,15.55
2023-01-02T05:14:12.477Z,15.64
2023-01-02T05:15:14.936Z,15.49
2023-01-02T05:16:16.676Z,15.29
2023-01-02T05:17:19.134Z,15.20
2023-01-02T05:18:20.799Z,15.25
2023-01-02T05:19:23.316Z,15.30
2023-01-02T05:20:24.985Z,15.46
2023-01-02T05:21:44.786Z,15.42
2023-01-02T05:23:06.080Z,15.57
2023-01-02T05:24:08.738Z,15.50
2023-01-02T05:25:10.381Z,15.47
2023-01-02T05:26:13.259Z,15.61
2023-01-02T05:27:14.795Z,15.54
2023-01-02T05:28:17.411Z,15.43
2023-01-02T05:29:18.939Z,15.48
2023-01-02T05:30:22.330Z,15.60
2023-01-02T05:31:24.197Z,15.46
2023-01-02T05:32:28.271Z,15.31
2023-01-02T05:33:29.821Z,15.26
2023-01-02T05:34:32.293Z,15.38
2023-01-02T05:35:33.818Z,15.37
2023-01-02T05:36:36.245Z,15.29
2023-01-02T05:37:37.800Z,15.28
2023-01-02T05:38:41.557Z,15.30
2023-01-02T05:39:43.083Z,15.12
2023-01-02T05:40:45.595Z,15.15
2023-01-02T05:41:49.872Z,15.10
2023-01-02T05:42:52.286Z,15.17
2023-01-02T05:43:54.709Z,15.19
2023-01-02T05:44:57.252Z,15.21
2023-01-02T05:46:07.068Z,15.17
2023-01-02T05:47:12.192Z,15.21
2023-01-02T05:48:17.889Z,15.23
2023-01-02T05:49:20.450Z,15.21
2023-01-02T05:50:22.213Z,15.27
2023-01-02T05:51:24.678Z,15.30
2023-01-02T05:52:26.294Z,15.35
2023-01-02T05:53:28.920Z,15.18
2023-01-02T05:54:32.683Z,15.21
2023-01-02T05:55:34.155Z,15.18
2023-01-02T05:56:36.636Z,15.03
2023-01-02T05:57:38.151Z,15.20
2023-01-02T05:58:42.523Z,15.17
2023-01-02T05:59:44.005Z,15.30
2023-01-02T06:00:46.457Z,15.31
2023-01-02T06:01:48.064Z,15.17
2023-01-02T06:02:50.625Z,15.14
2023-01-02T06:03:54.421Z,15.15
2023-01-02T06:04:56.938Z,15.21
2023-01-02T06:06:02.787Z,15.08
2023-01-02T06:07:05.190Z,15.18
2023-01-02T06:08:06.691Z,15.33
2023-01-02T06:09:09.823Z,15.13
2023-01-02T06:10:12.782Z,15.10
2023-01-02T06:11:15.746Z,15.05
2023-01-02T06:12:18.228Z,14.93
2023-01-02T06:13:19.699Z,15.05
2023-01-02T06:14:22.240Z,14.99
2023-01-02T06:15:23.823Z,15.01
2023-01-02T06:16:26.572Z,15.08
2023-01-02T06:17:28.140Z,15.15
2023-01-02T06:18:33.258Z,15.08
2023-01-02T06:19:34.773Z,15.03
2023-01-02T06:20:37.243Z,14.91
2023-01-02T06:21:39.706Z,14.94
2023-01-02T06:22:41.207Z,15.09
2023-01-02T06:23:44.731Z,15.02
2023-01-02T06:24:46.304Z,15.18
2023-01-02T06:25:50.054Z,15.16
2023-01-02T06:26:51.630Z,15.16
2023-01-02T06:27:54.143Z,15.20
2023-01-02T06:28:57.280Z,15.20
2023-01-02T06:29:59.738Z,15.22
2023-01-02T06:31:02.167Z,15.09
2023-01-02T06:32:05.245Z,15.22
2023-01-02T06:33:06.782Z,15.34
2023-01-02T06:34:10.907Z,15.43
2023-01-02T06:35:12.498Z,15.42
2023-01-02T06:36:16.892Z,15.54
2023-01-02T06:37:18.470Z,15.60
2023-01-02T06:38:20.913Z,15.72
2023-01-02T06:39:22.622Z,15.60
2023-01-02T06:40:25.091Z,15.73
2023-01-02T06:41:28.071Z,15.73
2023-01-02T06:42:30.970Z,15.78
2023-01-02T06:43:35.362Z,15.74
2023-01-02T06:44:37.809Z,15.57
2023-01-02T06:45:39.380Z,15.47
2023-01-02T06:46:41.807Z,15.62
2023-01-02T06:47:43.566Z,15.73
2023-01-02T06:48:46.417Z,15.54
2023-01-02T06:49:48.204Z,15.58
2023-01-02T06:50:50.625Z,15.61
2023-01-02T06:51:52.163Z,15.58
2023-01-02T06:52:54.601Z,15.67
2023-01-02T06:53:56.989Z,15.60
2023-01-02T06:54:59.519Z,15.78
2023-01-02T06:56:01.336Z,15.64
2023-01-02T06:57:05.265Z,15.75
2023-01-02T06:58:12.237Z,15.40
2023-01-02T06:59:17.316Z,15.23
2023-01-02T07:00:19.178Z,15.26
2023-01-02T07:01:24.016Z,15.21
2023-01-02T07:02:25.695Z,15.11
2023-01-02T07:03:28.258Z,15.28
2023-01-02T07:04:30.764Z,15.39
2023-01-02T07:05:32.333Z,15.41
2023-01-02T07:06:35.541Z,15.29
2023-01-02T07:07:38.004Z,15.45
2023-01-02T07:08:40.211Z,15.31
2023-01-02T07:09:42.679Z,15.36
2023-01-02T07:10:49.349Z,15.37
2023-01-02T07:11:55.056Z,15.59
2023-01-02T07:12:58.212Z,15.78
2023-01-02T07:14:00.735Z,15.84
2023-01-02T07:15:02.497Z,15.72
2023-01-02T07:16:06.438Z,15.73
2023-01-02T07:17:10.339Z,15.69
2023-01-02T07:18:12.853Z,15.78
2023-01-02T07:19:14.360Z,15.87
2023-01-02T07:20:16.989Z,15.72
2023-01-02T07:21:18.627Z,15.81
2023-01-02T07:22:21.231Z,15.72
2023-01-02T07:23:22.799Z,15.72
2023-01-02T07:24:25.204Z,15.76
2023-01-02T07:25:26.749Z,15.88
2023-01-02T07:26:29.261Z,15.97
2023-01-02T07:27:31.703Z,15.62
2023-01-02T07:28:36.260Z,15.70
2023-01-02T07:29:37.744Z,15.71
2023-01-02T07:30:40.203Z,15.58
2023-01-02T07:31:41.680Z,15.70
2023-01-02T07:32:44.214Z,15.78
2023-01-02T07:33:47.091Z,15.41
2023-01-02T07:34:48.703Z,15.40
2023-01-02T07:35:51.304Z,15.46
2023-01-02T07:36:52.826Z,15.52
2023-01-02T07:37:55.245Z,15.56
2023-01-02T07:38:58.328Z,15.59
2023-01-02T07:39:59.810Z,15.48
2023-01-02T07:41:02.323Z,15.57
2023-01-02T07:42:05.023Z,15.60
2023-01-02T07:43:07.541Z,15.54
2023-01-02T07:44:10.344Z,15.47
2023-01-02T07:45:15.585Z,15.61
2023-01-02T07:46:18.685Z,15.50
2023-01-02T07:47:21.152Z,15.55
2023-01-02T07:48:22.687Z,15.55
2023-01-02T07:49:25.140Z,15.61
2023-01-02T07:50:26.715Z,15.77
2023-01-02T07:51:29.235Z,15.82
2023-01-02T07:52:30.735Z,15.77
2023-01-02T07:53:33.773Z,15.79
2023-01-02T07:54:36.239Z,15.74
2023-01-02T07:55:37.794Z,15.57
2023-01-02T07:56:40.276Z,15.57
2023-01-02T07:57:41.780Z,15.49
2023-01-02T07:58:44.259Z,15.62
2023-01-02T07:59:50.096Z,15.66
2023-01-02T08:00:55.644Z,15.35
2023-01-02T08:02:00.983Z,15.41
2023-01-02T08:03:02.597Z,15.56
2023-01-02T08:04:05.207Z,15.72
2023-01-02T08:05:07.652Z,15.76
2023-01-02T08:06:12.067Z,15.87
2023-01-02T08:07:13.638Z,15.40
2023-01-02T08:08:16.247Z,15.42
2023-01-02T08:09:17.735Z,15.51
2023-01-02T08:10:20.230Z,15.62
2023-01-02T08:11:23.329Z,15.63
2023-01-02T08:12:25.781Z,15.49
2023-01-02T08:13:28.324Z,15.50
2023-01-02T08:14:29.803Z,15.31
2023-01-02T08:15:34.225Z,15.30
2023-01-02T08:16:36.752Z,15.32
2023-01-02T08:17:38.483Z,15.39
2023-01-02T08:18:41.346Z,15.62
2023-01-02T08:19:43.745Z,15.63
2023-01-02T08:20:45.239Z,15.71
2023-01-02T08:21:47.663Z,15.82
2023-01-02T08:22:50.190Z,15.79
2023-01-02T08:23:52.669Z,15.78
2023-01-02T08:24:54.191Z,15.65
2023-01-02T08:25:58.929Z,15.53
2023-01-02T08:27:01.483Z,15.57
2023-01-02T08:28:04.434Z,15.49
2023-01-02T08:29:06.022Z,15.33
2023-01-02T08:30:09.291Z,15.28
2023-01-02T08:31:14.971Z,15.29
2023-01-02T08:32:17.443Z,15.50
2023-01-02T08:33:19.890Z,15.65
2023-01-02T08:34:22.454Z,15.65
2023-01-02T08:35:37.533Z,15.40
2023-01-02T08:36:40.652Z,15.49
2023-01-02T08:37:48.382Z,15.45
2023-01-02T08:38:52.876Z,15.40
2023-01-02T08:39:54.472Z,15.49
2023-01-02T08:40:59.046Z,15.65
2023-01-02T08:42:01.644Z,15.68
2023-01-02T08:43:04.299Z,15.75
2023-01-02T08:44:07.806Z,15.77
2023-01-02T08:45:10.514Z,15.80
2023-01-02T08:46:14.305Z,15.56
2023-01-02T08:47:15.930Z,15.76
2023-01-02T08:48:20.887Z,15.66
2023-01-02T08:49:24.015Z,15.56
2023-01-02T08:50:25.596Z,15.47
2023-01-02T08:51:28.443Z,15.47
2023-01-02T08:52:29.959Z,15.46
2023-01-02T08:53:32.491Z,15.35
2023-01-02T08:54:35.397Z,15.39
2023-01-02T08:55:37.891Z,15.38
2023-01-02T08:56:41.415Z,15.53
2023-01-02T08:57:42.987Z,15.47
2023-01-02T08:58:52.019Z,15.50
2023-01-02T08:59:55.059Z,15.62
2023-01-02T09:00:56.540Z,15.74
2023-01-02T09:02:00.428Z,15.64
2023-01-02T09:03:02.464Z,15.45
2023-01-02T09:04:12.064Z,15.39
2023-01-02T09:05:14.529Z,15.54
2023-01-02T09:06:21.699Z,15.71
2023-01-02T09:07:25.033Z,15.79
2023-01-02T09:08:27.443Z,15.98
2023-01-02T09:09:29.887Z,16.05
2023-01-02T09:10:32.311Z,16.14
2023-01-02T09:11:36.015Z,16.07
2023-01-02T09:12:38.532Z,16.13
2023-01-02T09:13:40.306Z,16.04
2023-01-02T09:14:42.706Z,15.96
2023-01-02T09:15:45.488Z,15.91
2023-01-02T09:16:48.605Z,15.86
2023-01-02T09:17:51.707Z,15.78
2023-01-02T09:18:56.708Z,15.68
2023-01-02T09:19:59.152Z,15.60
2023-01-02T09:21:00.680Z,15.55
2023-01-02T09:22:04.211Z,15.61
2023-01-02T09:23:05.765Z,15.55
2023-01-02T09:24:09.365Z,15.56
2023-01-02T09:25:10.868Z,15.68
2023-01-02T09:26:14.451Z,15.49
2023-01-02T09:27:16.980Z,15.54
2023-01-02T09:28:18.473Z,15.72
2023-01-02T09:29:21.452Z,15.79
2023-01-02T09:30:23.930Z,15.79
2023-01-02T09:31:26.786Z,15.71
2023-01-02T09:32:28.615Z,15.81
2023-01-02T09:33:32.775Z,15.71
2023-01-02T09:34:35.256Z,15.64
2023-01-02T09:35:36.750Z,15.40
2023-01-02T09:36:39.893Z,15.53
2023-01-02T09:37:41.364Z,15.53
2023-01-02T09:38:44.129Z,15.63
2023-01-02T09:39:45.662Z,15.67
2023-01-02T09:40:52.181Z,15.69
2023-01-02T09:41:57.743Z,15.79
2023-01-02T09:43:00.754Z,15.85
2023-01-02T09:44:08.333Z,15.84
2023-01-02T09:45:11.976Z,15.62
2023-01-02T09:46:24.965Z,15.65
2023-01-02T09:47:29.536Z,15.76
2023-01-02T09:48:35.127Z,15.84
2023-01-02T09:49:44.840Z,15.84
2023-01-02T09:50:49.227Z,15.82
2023-01-02T09:51:52.259Z,15.76
2023-01-02T09:52:58.255Z,15.96
2023-01-02T09:54:01.571Z,15.79
2023-01-02T09:55:05.658Z,15.88
2023-01-02T09:56:16.482Z,15.96
2023-01-02T09:57:33.189Z,15.70
2023-01-02T09:58:43.703Z,15.72
2023-01-02T09:59:51.513Z,15.83
2023-01-02T10:00:54.044Z,16.05
2023-01-02T10:02:03.163Z,15.88
2023-01-02T10:03:13.275Z,15.72
2023-01-02T10:04:25.773Z,15.70
2023-01-02T10:05:50.059Z,15.81
2023-01-02T10:07:01.324Z,15.80
2023-01-02T10:08:12.916Z,15.79
2023-01-02T10:09:22.148Z,15.75
2023-01-02T10:10:30.671Z,15.73
2023-01-02T10:11:44.285Z,15.81
2023-01-02T10:13:01.987Z,15.96
2023-01-02T10:14:21.124Z,16.00
2023-01-02T10:15:26.864Z,15.97
2023-01-02T10:16:33.077Z,16.05
2023-01-02T10:17:40.125Z,16.07
2023-01-02T10:18:46.218Z,15.96
2023-01-02T10:19:57.291Z,16.05
2023-01-02T10:21:06.379Z,15.85
2023-01-02T10:22:12.131Z,15.90
2023-01-02T10:23:21.019Z,15.86
2023-01-02T10:24:32.045Z,15.87
2023-01-02T10:25:40.454Z,15.69
2023-01-02T10:26:48.314Z,15.99
2023-01-02T10:27:55.585Z,15.77
2023-01-02T10:29:06.504Z,15.95
2023-01-02T10:30:19.525Z,15.93
2023-01-02T10:31:25.054Z,16.02
2023-01-02T10:32:28.231Z,16.08
2023-01-02T10:33:44.912Z,16.22
2023-01-02T10:35:10.203Z,16.36
2023-01-02T10:36:24.202Z,16.54
2023-01-02T10:37:28.255Z,16.83
2023-01-02T10:38:35.732Z,17.10
2023-01-02T10:39:38.260Z,17.07
2023-01-02T10:40:43.312Z,17.11
2023-01-02T10:41:50.154Z,17.31
2023-01-02T10:42:59.817Z,17.27
2023-01-02T10:44:06.303Z,17.06
2023-01-02T10:45:17.132Z,17.08
2023-01-02T10:46:19.502Z,17.23
2023-01-02T10:47:31.169Z,17.36
2023-01-02T10:48:36.069Z,17.34
2023-01-02T10:49:39.782Z,17.34
2023-01-02T10:50:48.891Z,17.44
2023-01-02T10:51:59.364Z,17.45
2023-01-02T10:53:07.828Z,17.01
2023-01-02T10:54:11.489Z,16.85
2023-01-02T10:55:14.152Z,17.13
2023-01-02T10:56:19.700Z,17.01
2023-01-02T10:57:25.920Z,16.68
2023-01-02T10:58:29.937Z,16.77
2023-01-02T10:59:34.166Z,17.00
2023-01-02T11:00:36.670Z,17.04
2023-01-02T11:01:51.193Z,17.27
2023-01-02T11:02:55.710Z,17.30
2023-01-02T11:04:13.155Z,17.22
2023-01-02T11:05:20.923Z,16.87
2023-01-02T11:06:30.121Z,17.03
2023-01-02T11:07:41.024Z,17.14
2023-01-02T11:08:43.563Z,17.36
2023-01-02T11:10:06.085Z,17.47
2023-01-02T11:11:14.448Z,17.06
2023-01-02T11:12:16.901Z,16.85
2023-01-02T11:13:21.503Z,16.86
2023-01-02T11:14:29.149Z,17.00
2023-01-02T11:15:34.843Z,17.15
2023-01-02T11:16:38.681Z,17.40
2023-01-02T11:17:46.168Z,17.41
2023-01-02T11:18:52.557Z,17.61
2023-01-02T11:19:56.966Z,17.36
2023-01-02T11:21:04.281Z,17.30
2023-01-02T11:22:09.092Z,17.23
2023-01-02T11:23:16.810Z,17.52
2023-01-02T11:24:25.812Z,17.25
2023-01-02T11:25:30.205Z,17.27
2023-01-02T11:26:36.036Z,17.31
2023-01-02T11:27:42.373Z,17.37
2023-01-02T11:28:45.051Z,16.86
2023-01-02T11:29:49.811Z,16.87
2023-01-02T11:30:54.584Z,17.05
2023-01-02T11:32:00.618Z,16.68
2023-01-02T11:33:09.629Z,16.90
2023-01-02T11:34:21.682Z,17.13
2023-01-02T11:35:37.580Z,17.35
2023-01-02T11:36:44.989Z,17.73
2023-01-02T11:37:53.002Z,17.95
2023-01-02T11:38:56.935Z,17.98
2023-01-02T11:40:00.901Z,17.89
2023-01-02T11:41:03.644Z,18.03
2023-01-02T11:42:49.276Z,18.22
2023-01-02T11:43:57.206Z,18.20
2023-01-02T11:45:06.433Z,18.29
2023-01-02T11:46:20.234Z,18.42
2023-01-02T11:47:35.379Z,18.85
2023-01-02T11:48:38.003Z,19.44
2023-01-02T11:49:45.741Z,19.69
2023-01-02T11:50:48.549Z,20.80
2023-01-02T11:51:56.591Z,21.44
2023-01-02T11:53:03.563Z,22.08
2023-01-02T11:54:15.440Z,22.82
2023-01-02T11:55:32.797Z,23.74
2023-01-02T11:56:37.548Z,23.95
2023-01-02T11:57:45.197Z,24.25
2023-01-02T11:58:54.309Z,24.58
2023-01-02T12:00:02.575Z,25.27
2023-01-02T12:01:12.542Z,24.85
2023-01-02T12:02:22.887Z,24.74
2023-01-02T12:03:27.816Z,24.59
2023-01-02T12:04:31.251Z,24.21
2023-01-02T12:05:43.651Z,24.12
2023-01-02T12:06:59.394Z,24.49
2023-01-02T12:08:12.394Z,23.60
2023-01-02T12:09:22.460Z,22.98
2023-01-02T12:10:41.248Z,21.60
2023-01-02T12:12:01.910Z,21.14
2023-01-02T12:13:20.510Z,20.87
2023-01-02T12:14:25.458Z,20.73
2023-01-02T12:15:54.936Z,20.82
2023-01-02T12:17:03.852Z,21.29
2023-01-02T12:18:20.121Z,21.34
2023-01-02T12:19:36.739Z,21.14
2023-01-02T12:20:44.154Z,20.06
2023-01-02T12:21:58.388Z,20.30
2023-01-02T12:23:19.461Z,20.06
2023-01-02T12:24:40.311Z,20.10
2023-01-02T12:25:54.258Z,19.70
2023-01-02T12:27:05.956Z,19.69
2023-01-02T12:28:24.842Z,19.28
2023-01-02T12:29:47.117Z,18.44
2023-01-02T12:30:58.446Z,18.35
2023-01-02T12:32:30.226Z,18.78
2023-01-02T12:33:45.657Z,18.66
2023-01-02T12:35:08.296Z,18.86
2023-01-02T12:36:25.955Z,19.03
2023-01-02T12:37:40.895Z,18.92
2023-01-02T12:39:02.533Z,18.71
2023-01-02T12:40:35.791Z,19.42
2023-01-02T12:42:01.765Z,19.74
2023-01-02T12:43:47.973Z,19.75
2023-01-02T12:44:53.279Z,19.64
2023-01-02T12:46:09.513Z,20.19
2023-01-02T12:47:25.719Z,20.48
2023-01-02T12:48:59.372Z,19.26
2023-01-02T12:50:26.137Z,19.03
2023-01-02T12:51:34.495Z,19.61
2023-01-02T12:52:51.506Z,19.80
2023-01-02T12:54:20.731Z,20.14
2023-01-02T12:55:35.897Z,20.42
2023-01-02T12:56:44.524Z,20.22
2023-01-02T12:57:54.628Z,19.78
2023-01-02T12:59:11.575Z,19.79
2023-01-02T13:00:29.353Z,19.22
2023-01-02T13:01:39.405Z,19.50
2023-01-02T13:02:57.517Z,19.35
2023-01-02T13:04:10.559Z,19.73
2023-01-02T13:05:17.173Z,19.84
2023-01-02T13:06:44.469Z,19.22
2023-01-02T13:07:51.937Z,19.00
2023-01-02T13:09:02.009Z,18.82
2023-01-02T13:10:06.601Z,19.15
2023-01-02T13:11:11.472Z,19.49
2023-01-02T13:12:16.224Z,19.53
2023-01-02T13:13:19.403Z,19.40
2023-01-02T13:14:25.333Z,19.44
2023-01-02T13:15:31.784Z,19.30
2023-01-02T13:16:36.725Z,19.57
2023-01-02T13:17:54.548Z,19.93
2023-01-02T13:19:06.279Z,19.48
2023-01-02T13:20:19.419Z,19.64
2023-01-02T13:21:29.366Z,19.34
2023-01-02T13:22:44.173Z,19.24
2023-01-02T13:23:48.429Z,19.52
2023-01-02T13:24:53.101Z,19.10
2023-01-02T13:25:59.981Z,19.07
2023-01-02T13:27:02.528Z,19.17
2023-01-02T13:28:07.896Z,19.17
2023-01-02T13:29:22.910Z,19.20
2023-01-02T13:30:44.025Z,18.85
2023-01-02T13:31:50.357Z,18.72
2023-01-02T13:32:54.177Z,18.51
2023-01-02T13:33:56.746Z,18.80
2023-01-02T13:35:03.467Z,18.31
2023-01-02T13:36:17.739Z,18.19
2023-01-02T13:37:23.558Z,18.18
2023-01-02T13:38:30.354Z,18.13
2023-01-02T13:39:47.087Z,18.06
2023-01-02T13:40:56.748Z,17.47
2023-01-02T13:42:19.293Z,17.60
2023-01-02T13:43:27.088Z,17.69
2023-01-02T13:44:36.456Z,17.94
2023-01-02T13:45:45.268Z,17.88
2023-01-02T13:47:03.973Z,17.73
2023-01-02T13:48:19.053Z,18.01
2023-01-02T13:49:22.547Z,17.64
2023-01-02T13:50:29.862Z,17.27
2023-01-02T13:51:35.719Z,17.22
2023-01-02T13:52:37.727Z,17.23
2023-01-02T13:53:42.795Z,17.12
2023-01-02T13:55:34.589Z,17.21
2023-01-02T13:57:18.986Z,17.10
2023-01-02T13:58:32.379Z,17.09
2023-01-02T13:59:41.684Z,17.17
2023-01-02T14:00:53.494Z,17.18
2023-01-02T14:02:16.860Z,17.45
2023-01-02T14:03:34.863Z,17.25
2023-01-02T14:04:41.228Z,17.25
2023-01-02T14:06:00.923Z,17.14
2023-01-02T14:07:40.218Z,16.94
2023-01-02T14:09:12.480Z,16.80
2023-01-02T14:10:27.240Z,16.86
2023-01-02T14:11:55.473Z,16.78
2023-01-02T14:13:01.345Z,16.74
2023-01-02T14:14:11.804Z,16.80
2023-01-02T14:15:17.748Z,16.89
2023-01-02T14:16:34.989Z,16.85